Station Historical Data
Daily Summary for October 14, 2017 Units:  Metric    English   Both
« Previous Day
Next Day »
Daily Weekly Monthly Yearly Custom
  High: Low: Average:
Temperature: 22.6 °C 11.8 °C 16.9 °C
Dew Point: 16.1 °C 10.4 °C 13.7 °C
Humidity: 93% 65% 82%
Wind Speed: 16.1km/h 0km/h 2.3km/h
Wind Gust: 20.9km/h - -
Wind- - SSE
Pressure: 1023.6 hPa 1016.1 hPa -
Precipitation: 0 mm    
Historical Graphs
 
 
Tabular Data for October 14, 2017
Time Temperature Dew Point Pressure Wind Wind Speed Wind Gust Humidity Rainfall Rate (Hourly)
00:00 15.2 °C 12.1 °C 1022.2 hPa Calm     82% 0 mm
00:05 15.2 °C 12.3 °C 1022.2 hPa Calm     83% 0 mm
00:10 15.1 °C 12.2 °C 1022.2 hPa Calm     83% 0 mm
00:15 15.1 °C 12.2 °C 1022.2 hPa Calm     83% 0 mm
00:20 15 °C 12.1 °C 1022.2 hPa Calm     83% 0 mm
00:25 14.9 °C 12.3 °C 1022.2 hPa Calm     84% 0 mm
00:30 14.9 °C 12.3 °C 1022.2 hPa Calm     84% 0 mm
00:35 15 °C 12.3 °C 1021.9 hPa Calm     84% 0 mm
00:40 15.1 °C 12.4 °C 1021.9 hPa SSW 1.6 km/h 9.7 km/h 84% 0 mm
00:45 15.1 °C 12.2 °C 1022.2 hPa SW 3.2 km/h 9.7 km/h 83% 0 mm
00:50 15.1 °C 12.2 °C 1021.9 hPa SW 3.2 km/h 9.7 km/h 83% 0 mm
00:55 15 °C 12.1 °C 1021.9 hPa Calm   9.7 km/h 83% 0 mm
01:00 14.9 °C 12.1 °C 1022.2 hPa SW 3.2 km/h 8 km/h 83% 0 mm
01:05 14.8 °C 11.9 °C 1022.2 hPa SW 3.2 km/h 8 km/h 83% 0 mm
01:10 14.8 °C 11.9 °C 1022.2 hPa SW 3.2 km/h 8 km/h 83% 0 mm
01:15 14.7 °C 11.8 °C 1022.2 hPa Calm   11.3 km/h 83% 0 mm
01:20 14.6 °C 11.9 °C 1021.9 hPa SSW 1.6 km/h 11.3 km/h 84% 0 mm
01:25 14.5 °C 11.8 °C 1021.9 hPa Calm   6.4 km/h 84% 0 mm
01:30 14.4 °C 11.7 °C 1022.2 hPa Calm   6.4 km/h 84% 0 mm
01:35 14.3 °C 11.6 °C 1021.9 hPa Calm   6.4 km/h 84% 0 mm
01:40 14.2 °C 11.7 °C 1021.9 hPa Calm   6.4 km/h 85% 0 mm
01:45 14.2 °C 11.7 °C 1021.9 hPa SSW 1.6 km/h 9.7 km/h 85% 0 mm
01:50 14.1 °C 11.6 °C 1021.9 hPa SSW 1.6 km/h 9.7 km/h 85% 0 mm
01:55 14.1 °C 11.6 °C 1021.9 hPa SSW 1.6 km/h 6.4 km/h 85% 0 mm
02:00 14 °C 11.7 °C 1021.9 hPa SSW 3.2 km/h 4.8 km/h 86% 0 mm
02:05 13.9 °C 11.7 °C 1021.9 hPa Calm   4.8 km/h 86% 0 mm
02:10 13.9 °C 11.6 °C 1021.9 hPa SSW 1.6 km/h 4.8 km/h 86% 0 mm
02:15 13.9 °C 11.6 °C 1021.9 hPa Calm   4.8 km/h 86% 0 mm
02:20 13.8 °C 11.6 °C 1021.9 hPa Calm   4.8 km/h 86% 0 mm
02:25 13.8 °C 11.5 °C 1021.9 hPa Calm     86% 0 mm
02:30 13.7 °C 11.4 °C 1021.9 hPa Calm     86% 0 mm
02:35 13.5 °C 11.2 °C 1021.9 hPa Calm     86% 0 mm
02:40 13.4 °C 11.3 °C 1021.9 hPa Calm     87% 0 mm
02:45 13.3 °C 11.2 °C 1021.9 hPa Calm     87% 0 mm
02:50 13.3 °C 11.2 °C 1021.9 hPa Calm     87% 0 mm
02:55 13.2 °C 11.2 °C 1021.9 hPa Calm     88% 0 mm
03:00 13.2 °C 11.2 °C 1021.9 hPa Calm     88% 0 mm
03:05 13.2 °C 11.2 °C 1021.9 hPa Calm     88% 0 mm
03:10 13.2 °C 11.2 °C 1021.9 hPa Calm     88% 0 mm
03:15 13.1 °C 11.3 °C 1021.9 hPa Calm     89% 0 mm
03:20 13.1 °C 11.3 °C 1021.9 hPa Calm     89% 0 mm
03:25 13.2 °C 11.4 °C 1021.9 hPa Calm     89% 0 mm
03:30 13.1 °C 11.3 °C 1021.9 hPa Calm     89% 0 mm
03:35 12.9 °C 11 °C 1021.9 hPa Calm     88% 0 mm
03:40 12.9 °C 11.1 °C 1021.9 hPa Calm     89% 0 mm
03:45 12.8 °C 11 °C 1021.9 hPa Calm     89% 0 mm
03:50 12.7 °C 10.9 °C 1021.9 hPa Calm     89% 0 mm
03:55 12.6 °C 10.8 °C 1021.9 hPa Calm     89% 0 mm
04:00 12.6 °C 11 °C 1021.9 hPa Calm     90% 0 mm
04:05 12.6 °C 11 °C 1021.9 hPa Calm     90% 0 mm
04:10 12.6 °C 10.8 °C 1021.9 hPa Calm     89% 0 mm
04:15 12.4 °C 10.6 °C 1021.9 hPa Calm     89% 0 mm
04:20 12.2 °C 10.6 °C 1022.2 hPa Calm     90% 0 mm
04:25 12.2 °C 10.6 °C 1022.2 hPa Calm     90% 0 mm
04:30 12.1 °C 10.5 °C 1021.9 hPa Calm     90% 0 mm
04:35 12.1 °C 10.5 °C 1021.9 hPa Calm     90% 0 mm
04:40 12.2 °C 10.6 °C 1021.9 hPa Calm     90% 0 mm
04:45 12.3 °C 10.8 °C 1021.9 hPa Calm     91% 0 mm
04:50 12.3 °C 10.7 °C 1021.9 hPa Calm     90% 0 mm
05:00 12.2 °C 10.8 °C 1021.9 hPa Calm     91% 0 mm
05:05 12.1 °C 10.7 °C 1021.9 hPa Calm     91% 0 mm
05:10 12.1 °C 10.7 °C 1021.9 hPa Calm     91% 0 mm
05:15 12.2 °C 10.7 °C 1022.2 hPa Calm     91% 0 mm
05:20 12.2 °C 10.8 °C 1022.2 hPa Calm     91% 0 mm
05:25 12.3 °C 10.8 °C 1022.2 hPa Calm     91% 0 mm
05:30 12.2 °C 10.7 °C 1022.2 hPa Calm     91% 0 mm
05:35 12.1 °C 10.7 °C 1022.2 hPa Calm     91% 0 mm
05:40 12 °C 10.6 °C 1022.2 hPa Calm     91% 0 mm
05:45 11.9 °C 10.4 °C 1022.2 hPa Calm     91% 0 mm
05:50 11.8 °C 10.4 °C 1022.2 hPa Calm     91% 0 mm
05:55 11.9 °C 10.4 °C 1022.2 hPa Calm     91% 0 mm
06:00 11.9 °C 10.5 °C 1022.2 hPa Calm     91% 0 mm
06:05 12.1 °C 10.8 °C 1022.2 hPa Calm     92% 0 mm
06:10 12.3 °C 11 °C 1022.2 hPa Calm     92% 0 mm
06:15 12.4 °C 11.2 °C 1022.2 hPa Calm     92% 0 mm
06:20 12.7 °C 11.4 °C 1022.2 hPa Calm     92% 0 mm
06:25 12.8 °C 11.6 °C 1022.2 hPa Calm     92% 0 mm
06:30 13.1 °C 11.8 °C 1022.2 hPa Calm     92% 0 mm
06:35 13.3 °C 12.1 °C 1022.2 hPa Calm     92% 0 mm
06:40 13.5 °C 12.2 °C 1022.2 hPa Calm     92% 0 mm
06:45 13.6 °C 12.3 °C 1022.2 hPa Calm     92% 0 mm
06:50 13.7 °C 12.4 °C 1022.2 hPa Calm     92% 0 mm
06:55 13.7 °C 12.4 °C 1022.2 hPa Calm     92% 0 mm
07:00 13.8 °C 12.5 °C 1022.2 hPa Calm     92% 0 mm
07:05 13.8 °C 12.6 °C 1022.6 hPa Calm     92% 0 mm
07:10 13.7 °C 12.4 °C 1022.6 hPa Calm     92% 0 mm
07:15 13.6 °C 12.3 °C 1022.6 hPa Calm     92% 0 mm
07:20 13.4 °C 12 °C 1022.6 hPa Calm     91% 0 mm
07:25 13.3 °C 11.9 °C 1022.6 hPa Calm     91% 0 mm
07:30 13.3 °C 12 °C 1022.6 hPa Calm     92% 0 mm
07:35 13.2 °C 11.7 °C 1022.6 hPa Calm     91% 0 mm
07:40 13.2 °C 11.9 °C 1022.6 hPa Calm     92% 0 mm
07:45 13.2 °C 11.7 °C 1022.9 hPa Calm     91% 0 mm
07:50 13.2 °C 11.9 °C 1022.9 hPa Calm     92% 0 mm
07:55 13.3 °C 12 °C 1022.9 hPa Calm     92% 0 mm
08:00 13.3 °C 12.1 °C 1022.9 hPa Calm     92% 0 mm
08:05 13.4 °C 12.2 °C 1022.9 hPa Calm     92% 0 mm
08:10 13.5 °C 12.2 °C 1022.9 hPa Calm     92% 0 mm
08:15 13.5 °C 12.2 °C 1023.2 hPa Calm     92% 0 mm
08:20 13.5 °C 12.2 °C 1023.2 hPa Calm     92% 0 mm
08:25 13.7 °C 12.4 °C 1023.2 hPa Calm     92% 0 mm
08:30 14.1 °C 12.8 °C 1023.2 hPa Calm     92% 0 mm
08:35 14.5 °C 13.4 °C 1023.2 hPa Calm     93% 0 mm
08:40 14.9 °C 13.7 °C 1023.2 hPa Calm     92% 0 mm
08:45 15.2 °C 13.9 °C 1023.2 hPa Calm     92% 0 mm
08:50 15.3 °C 13.9 °C 1023.2 hPa Calm     91% 0 mm
08:55 15.5 °C 14.1 °C 1023.2 hPa Calm     91% 0 mm
09:00 15.6 °C 14 °C 1023.2 hPa Calm     90% 0 mm
09:05 15.7 °C 14.1 °C 1023.6 hPa Calm     90% 0 mm
09:10 15.8 °C 14 °C 1023.6 hPa Calm     89% 0 mm
09:15 16.1 °C 14.3 °C 1023.2 hPa Calm     89% 0 mm
09:20 16.4 °C 14.4 °C 1023.2 hPa Calm     88% 0 mm
09:25 16.6 °C 14.4 °C 1023.6 hPa SW 1.6 km/h 4.8 km/h 87% 0 mm
09:30 16.7 °C 14.3 °C 1023.6 hPa SW 1.6 km/h 8 km/h 86% 0 mm
09:35 16.7 °C 14.1 °C 1023.6 hPa SW 1.6 km/h 8 km/h 85% 0 mm
09:40 16.8 °C 14.2 °C 1023.6 hPa SW 1.6 km/h 6.4 km/h 85% 0 mm
09:45 16.9 °C 14.4 °C 1023.6 hPa Calm   4.8 km/h 85% 0 mm
09:50 17.2 °C 14.5 °C 1023.2 hPa Calm   6.4 km/h 84% 0 mm
09:55 17.5 °C 14.8 °C 1023.6 hPa SW 1.6 km/h 8 km/h 84% 0 mm
10:00 17.7 °C 14.8 °C 1023.6 hPa SW 1.6 km/h 8 km/h 83% 0 mm
10:05 17.7 °C 14.4 °C 1023.6 hPa SW 3.2 km/h 11.3 km/h 81% 0 mm
10:10 17.7 °C 14.4 °C 1023.2 hPa Calm   8 km/h 81% 0 mm
10:15 17.7 °C 14.6 °C 1023.2 hPa WSW 4.8 km/h 8 km/h 82% 0 mm
10:20 17.8 °C 14.5 °C 1023.6 hPa SW 3.2 km/h 8 km/h 81% 0 mm
10:25 17.9 °C 14.6 °C 1023.2 hPa SW 3.2 km/h 9.7 km/h 81% 0 mm
10:30 18.2 °C 14.8 °C 1023.2 hPa SW 4.8 km/h 11.3 km/h 81% 0 mm
10:35 18.3 °C 14.6 °C 1023.2 hPa SW 4.8 km/h 12.9 km/h 79% 0 mm
10:40 18.3 °C 14.6 °C 1023.2 hPa SW 4.8 km/h 12.9 km/h 79% 0 mm
10:45 18.4 °C 14.7 °C 1023.2 hPa WSW 4.8 km/h 9.7 km/h 79% 0 mm
10:50 18.6 °C 14.8 °C 1023.2 hPa WSW 3.2 km/h 8 km/h 79% 0 mm
10:55 18.6 °C 14.5 °C 1023.2 hPa West 3.2 km/h 9.7 km/h 77% 0 mm
11:00 18.7 °C 14.8 °C 1023.2 hPa WSW 3.2 km/h 9.7 km/h 78% 0 mm
11:05 18.7 °C 14.6 °C 1023.2 hPa SW 6.4 km/h 14.5 km/h 77% 0 mm
11:10 19.2 °C 15.2 °C 1023.2 hPa SW 9.7 km/h 9.7 km/h 78% 0 mm
11:15 19.4 °C 14.8 °C 1022.9 hPa SW 8 km/h 12.9 km/h 75% 0 mm
11:20 19.2 °C 14.8 °C 1022.9 hPa WSW 3.2 km/h 9.7 km/h 76% 0 mm
11:25 19 °C 14.9 °C 1022.9 hPa West 4.8 km/h 11.3 km/h 77% 0 mm
11:30 19.1 °C 15 °C 1022.9 hPa WSW 3.2 km/h 11.3 km/h 77% 0 mm
11:35 19.3 °C 15.4 °C 1022.9 hPa WSW 4.8 km/h 11.3 km/h 78% 0 mm
11:40 19.3 °C 14.8 °C 1022.9 hPa SW 3.2 km/h 11.3 km/h 75% 0 mm
11:45 19.2 °C 15.1 °C 1022.9 hPa WSW 6.4 km/h 11.3 km/h 77% 0 mm
11:50 19.3 °C 15.2 °C 1022.6 hPa SW 1.6 km/h 11.3 km/h 77% 0 mm
11:55 19.8 °C 15.4 °C 1022.6 hPa SSE 3.2 km/h 8 km/h 76% 0 mm
12:00 20.1 °C 15.6 °C 1022.6 hPa WSW 4.8 km/h 9.7 km/h 75% 0 mm
12:05 19.8 °C 15.1 °C 1022.6 hPa West 6.4 km/h 11.3 km/h 74% 0 mm
12:10 19.8 °C 15.1 °C 1022.6 hPa WSW 3.2 km/h 14.5 km/h 74% 0 mm
12:15 19.8 °C 15.2 °C 1022.6 hPa SSW 8 km/h 12.9 km/h 75% 0 mm
12:20 20 °C 15.2 °C 1022.2 hPa WSW 3.2 km/h 11.3 km/h 74% 0 mm
12:25 20.2 °C 15.2 °C 1022.2 hPa SW 4.8 km/h 11.3 km/h 73% 0 mm
12:30 20.3 °C 15.3 °C 1022.6 hPa SW 4.8 km/h 11.3 km/h 73% 0 mm
12:35 20.4 °C 15.4 °C 1022.2 hPa SW 3.2 km/h 9.7 km/h 73% 0 mm
12:40 20.2 °C 15.4 °C 1022.2 hPa SW 3.2 km/h 11.3 km/h 74% 0 mm
12:45 20.3 °C 15.5 °C 1022.2 hPa SW 4.8 km/h 11.3 km/h 74% 0 mm
12:50 20.2 °C 15.2 °C 1022.2 hPa West 1.6 km/h 11.3 km/h 73% 0 mm
12:55 20.2 °C 15.4 °C 1021.9 hPa Calm   8 km/h 74% 0 mm
13:00 20.4 °C 15.4 °C 1021.9 hPa West 3.2 km/h 8 km/h 73% 0 mm
13:05 20.7 °C 15.7 °C 1021.9 hPa WNW 3.2 km/h 11.3 km/h 73% 0 mm
13:10 21.1 °C 15.7 °C 1021.9 hPa West 3.2 km/h 9.7 km/h 71% 0 mm
13:15 20.7 °C 15.5 °C 1021.9 hPa WSW 1.6 km/h 8 km/h 72% 0 mm
13:20 20.5 °C 15.1 °C 1021.9 hPa WSW 4.8 km/h 9.7 km/h 71% 0 mm
13:25 20.4 °C 15.2 °C 1021.6 hPa West 3.2 km/h 8 km/h 72% 0 mm
13:30 20.9 °C 15.4 °C 1021.6 hPa West 4.8 km/h 9.7 km/h 71% 0 mm
13:35 20.7 °C 15.2 °C 1021.6 hPa West 4.8 km/h 11.3 km/h 71% 0 mm
13:40 20.4 °C 15 °C 1021.6 hPa West 3.2 km/h 11.3 km/h 71% 0 mm
13:45 20.4 °C 15.2 °C 1021.2 hPa West 3.2 km/h 8 km/h 72% 0 mm
13:50 20.4 °C 15.4 °C 1021.2 hPa WNW 3.2 km/h 9.7 km/h 73% 0 mm
13:55 20.6 °C 15.4 °C 1021.2 hPa West 8 km/h 9.7 km/h 72% 0 mm
14:00 20.6 °C 15.3 °C 1020.9 hPa WNW 6.4 km/h 11.3 km/h 72% 0 mm
14:05 20.5 °C 15.3 °C 1020.9 hPa WNW 6.4 km/h 11.3 km/h 72% 0 mm
14:10 20.3 °C 15.1 °C 1020.9 hPa WNW 4.8 km/h 9.7 km/h 72% 0 mm
14:15 20.6 °C 15.3 °C 1020.5 hPa WNW 1.6 km/h 8 km/h 72% 0 mm
14:20 20.9 °C 15.5 °C 1020.5 hPa West 3.2 km/h 8 km/h 71% 0 mm
14:25 21 °C 15.6 °C 1020.2 hPa West 1.6 km/h 6.4 km/h 71% 0 mm
14:30 21.2 °C 15.3 °C 1019.9 hPa Calm   4.8 km/h 69% 0 mm
14:35 21.7 °C 15.7 °C 1019.9 hPa Calm   4.8 km/h 69% 0 mm
14:40 21.9 °C 15.5 °C 1019.9 hPa South 1.6 km/h 8 km/h 67% 0 mm
14:45 21.9 °C 16 °C 1019.5 hPa SSW 1.6 km/h 8 km/h 69% 0 mm
14:50 22.2 °C 15.5 °C 1019.9 hPa Calm   6.4 km/h 66% 0 mm
14:55 22.1 °C 15.4 °C 1019.9 hPa Calm   4.8 km/h 66% 0 mm
15:00 22.4 °C 16 °C 1019.9 hPa West 1.6 km/h 6.4 km/h 67% 0 mm
15:05 22.2 °C 15.8 °C 1019.9 hPa WSW 1.6 km/h 6.4 km/h 67% 0 mm
15:10 22.5 °C 16.1 °C 1019.9 hPa WNW 1.6 km/h 6.4 km/h 67% 0 mm
15:15 22.4 °C 16 °C 1019.5 hPa WNW 1.6 km/h 6.4 km/h 67% 0 mm
15:20 22.6 °C 15.9 °C 1019.5 hPa SW 1.6 km/h 8 km/h 66% 0 mm
15:25 21.9 °C 15.1 °C 1019.9 hPa Calm   8 km/h 65% 0 mm
15:30 21.6 °C 15.4 °C 1019.9 hPa SSW 1.6 km/h 4.8 km/h 68% 0 mm
15:35 21.6 °C 15.2 °C 1019.9 hPa SSW 1.6 km/h 3.2 km/h 67% 0 mm
15:40 21.8 °C 15.6 °C 1019.9 hPa WSW 1.6 km/h 4.8 km/h 68% 0 mm
15:45 21.8 °C 15.6 °C 1019.5 hPa NW 1.6 km/h 6.4 km/h 68% 0 mm
15:50 21.7 °C 15.1 °C 1019.5 hPa Calm   1.6 km/h 66% 0 mm
15:55 21.7 °C 15.3 °C 1019.5 hPa Calm   4.8 km/h 67% 0 mm
16:00 21.8 °C 15.7 °C 1019.2 hPa Calm     68% 0 mm
16:05 21.8 °C 15.2 °C 1019.5 hPa Calm     66% 0 mm
16:10 21.8 °C 15.2 °C 1019.5 hPa Calm     66% 0 mm
16:15 21.7 °C 15.3 °C 1019.5 hPa NW 1.6 km/h 6.4 km/h 67% 0 mm
16:20 21.6 °C 15.2 °C 1019.5 hPa NW 1.6 km/h 6.4 km/h 67% 0 mm
16:25 21.7 °C 15.1 °C 1019.5 hPa Calm   3.2 km/h 66% 0 mm
16:30 21.7 °C 15.1 °C 1019.9 hPa Calm     66% 0 mm
16:35 21.6 °C 15.2 °C 1019.9 hPa Calm     67% 0 mm
16:40 21.6 °C 15.2 °C 1019.9 hPa Calm     67% 0 mm
16:45 21.4 °C 15.1 °C 1019.9 hPa Calm     67% 0 mm
16:50 21.4 °C 15 °C 1019.9 hPa Calm     67% 0 mm
16:55 21.3 °C 14.9 °C 1019.9 hPa Calm     67% 0 mm
17:00 21.3 °C 15.3 °C 1019.9 hPa Calm     69% 0 mm
17:05 21.2 °C 15.3 °C 1019.5 hPa NNW 4.8 km/h 9.7 km/h 69% 0 mm
17:10 21.1 °C 15.2 °C 1019.5 hPa Calm   9.7 km/h 69% 0 mm
17:15 21.1 °C 15.4 °C 1019.9 hPa North 1.6 km/h 8 km/h 70% 0 mm
17:20 20.9 °C 15.2 °C 1019.5 hPa North 1.6 km/h 8 km/h 70% 0 mm
17:25 20.8 °C 15.4 °C 1019.5 hPa North 1.6 km/h 6.4 km/h 71% 0 mm
17:30 20.8 °C 15.4 °C 1019.5 hPa NNE 1.6 km/h 6.4 km/h 71% 0 mm
17:35 20.8 °C 15.4 °C 1019.2 hPa NNE 3.2 km/h 6.4 km/h 71% 0 mm
17:40 20.8 °C 15.3 °C 1019.2 hPa NNE 1.6 km/h 4.8 km/h 71% 0 mm
17:45 20.6 °C 15.1 °C 1019.2 hPa Calm   4.8 km/h 71% 0 mm
17:50 20.4 °C 15.2 °C 1019.2 hPa NNE 1.6 km/h 8 km/h 72% 0 mm
17:55 20.2 °C 15 °C 1019.5 hPa Calm   4.8 km/h 72% 0 mm
18:00 20.1 °C 15.1 °C 1019.2 hPa ENE 1.6 km/h 6.4 km/h 73% 0 mm
18:05 20.1 °C 15.3 °C 1019.5 hPa NE 3.2 km/h 6.4 km/h 74% 0 mm
18:10 19.9 °C 15.2 °C 1019.2 hPa NE 3.2 km/h 9.7 km/h 74% 0 mm
18:15 19.8 °C 15.3 °C 1019.2 hPa NE 4.8 km/h 12.9 km/h 75% 0 mm
18:20 19.7 °C 15.5 °C 1019.2 hPa NE 4.8 km/h 14.5 km/h 77% 0 mm
18:25 19.5 °C 15.3 °C 1019.2 hPa NE 4.8 km/h 14.5 km/h 77% 0 mm
18:30 19.3 °C 15.3 °C 1019.5 hPa NNE 3.2 km/h 8 km/h 78% 0 mm
18:35 19.1 °C 15.4 °C 1019.5 hPa NE 4.8 km/h 16.1 km/h 79% 0 mm
18:40 18.8 °C 15.1 °C 1019.5 hPa NE 6.4 km/h 16.1 km/h 79% 0 mm
18:45 18.6 °C 15.1 °C 1019.5 hPa NE 3.2 km/h 14.5 km/h 80% 0 mm
18:50 18.4 °C 15.1 °C 1019.5 hPa NE 6.4 km/h 17.7 km/h 81% 0 mm
18:55 18.3 °C 14.9 °C 1019.5 hPa NE 3.2 km/h 8 km/h 81% 0 mm
19:00 18.2 °C 15.1 °C 1019.5 hPa ENE 4.8 km/h 11.3 km/h 82% 0 mm
19:05 18.1 °C 14.9 °C 1019.5 hPa NE 11.3 km/h 11.3 km/h 82% 0 mm
19:10 17.9 °C 15 °C 1019.5 hPa ENE 4.8 km/h 16.1 km/h 83% 0 mm
19:15 17.9 °C 14.9 °C 1019.5 hPa North 3.2 km/h 12.9 km/h 83% 0 mm
19:20 17.8 °C 14.9 °C 1019.5 hPa NE 3.2 km/h 12.9 km/h 83% 0 mm
19:25 17.7 °C 14.8 °C 1019.5 hPa ENE 4.8 km/h 9.7 km/h 83% 0 mm
19:30 17.7 °C 14.8 °C 1019.9 hPa NE 4.8 km/h 4.8 km/h 83% 0 mm
19:35 17.7 °C 14.9 °C 1019.9 hPa ENE 4.8 km/h 8 km/h 84% 0 mm
19:40 17.6 °C 14.9 °C 1019.9 hPa ENE 1.6 km/h 8 km/h 84% 0 mm
19:45 17.5 °C 14.8 °C 1019.9 hPa NE 3.2 km/h 8 km/h 84% 0 mm
19:50 17.5 °C 14.8 °C 1019.5 hPa NE 3.2 km/h 11.3 km/h 84% 0 mm
19:55 17.4 °C 14.7 °C 1019.5 hPa ENE 6.4 km/h 12.9 km/h 84% 0 mm
20:00 17.4 °C 14.7 °C 1019.5 hPa ENE 6.4 km/h 12.9 km/h 84% 0 mm
20:05 17.4 °C 14.7 °C 1019.5 hPa ENE 4.8 km/h 12.9 km/h 84% 0 mm
20:10 17.3 °C 14.6 °C 1019.2 hPa NE 8 km/h 20.9 km/h 84% 0 mm
20:15 17.3 °C 14.6 °C 1019.2 hPa ENE 8 km/h 20.9 km/h 84% 0 mm
20:20 17.3 °C 14.6 °C 1019.2 hPa ENE 6.4 km/h 14.5 km/h 84% 0 mm
20:25 17.2 °C 14.4 °C 1019.2 hPa NE 3.2 km/h 11.3 km/h 84% 0 mm
20:30 17.1 °C 14.3 °C 1019.2 hPa NE 3.2 km/h 6.4 km/h 84% 0 mm
20:35 17 °C 14.3 °C 1018.8 hPa ENE 6.4 km/h 12.9 km/h 84% 0 mm
20:40 16.9 °C 14.2 °C 1019.2 hPa Calm   12.9 km/h 84% 0 mm
20:45 16.9 °C 14.3 °C 1018.8 hPa ENE 4.8 km/h 12.9 km/h 85% 0 mm
20:50 16.8 °C 14.2 °C 1018.8 hPa ENE 3.2 km/h 11.3 km/h 85% 0 mm
20:55 16.7 °C 14.2 °C 1018.8 hPa ENE 4.8 km/h 12.9 km/h 85% 0 mm
20:59 16.6 °C 14.1 °C 1018.5 hPa NE 9.7 km/h 16.1 km/h 85% 0 mm
21:04 16.6 °C 14 °C 1018.8 hPa Calm   11.3 km/h 85% 0 mm
21:09 16.5 °C 14.2 °C 1018.8 hPa ENE 12.9 km/h 12.9 km/h 86% 0 mm
21:15 16.5 °C 14.2 °C 1018.8 hPa Calm   14.5 km/h 86% 0 mm
21:19 16.5 °C 14.2 °C 1018.8 hPa NE 1.6 km/h 6.4 km/h 86% 0 mm
21:25 16.5 °C 14.2 °C 1018.5 hPa ENE 3.2 km/h 8 km/h 86% 0 mm
21:30 16.4 °C 14.1 °C 1018.2 hPa NE 6.4 km/h 14.5 km/h 86% 0 mm
21:35 16.4 °C 14.1 °C 1018.2 hPa NE 3.2 km/h 14.5 km/h 86% 0 mm
21:40 16.4 °C 14.1 °C 1018.2 hPa ENE 16.1 km/h 16.1 km/h 86% 0 mm
21:44 16.4 °C 14.1 °C 1017.8 hPa ENE 6.4 km/h 16.1 km/h 86% 0 mm
21:50 16.4 °C 14.1 °C 1017.8 hPa ENE 6.4 km/h 16.1 km/h 86% 0 mm
21:55 16.4 °C 14.1 °C 1017.5 hPa East 4.8 km/h 14.5 km/h 86% 0 mm
22:00 16.4 °C 14.1 °C 1017.5 hPa East 6.4 km/h 14.5 km/h 86% 0 mm
22:05 16.4 °C 14.1 °C 1017.5 hPa ENE 6.4 km/h 16.1 km/h 86% 0 mm
22:09 16.4 °C 14.1 °C 1017.5 hPa NE 4.8 km/h 14.5 km/h 86% 0 mm
22:15 16.4 °C 14.1 °C 1017.5 hPa ENE 6.4 km/h 14.5 km/h 86% 0 mm
22:19 16.4 °C 14.1 °C 1017.5 hPa ENE 6.4 km/h 12.9 km/h 86% 0 mm
22:24 16.4 °C 14.1 °C 1017.5 hPa ENE 4.8 km/h 14.5 km/h 86% 0 mm
22:30 16.4 °C 14.1 °C 1017.5 hPa ENE 3.2 km/h 12.9 km/h 86% 0 mm
22:35 16.4 °C 14.1 °C 1017.2 hPa Calm   12.9 km/h 86% 0 mm
22:40 16.4 °C 14.1 °C 1017.2 hPa ENE 4.8 km/h 11.3 km/h 86% 0 mm
22:44 16.4 °C 14.1 °C 1017.2 hPa ENE 3.2 km/h 11.3 km/h 86% 0 mm
22:50 16.4 °C 14.1 °C 1017.2 hPa ENE 4.8 km/h 12.9 km/h 86% 0 mm
22:55 16.5 °C 14.2 °C 1017.2 hPa ENE 4.8 km/h 12.9 km/h 86% 0 mm
23:00 16.5 °C 14.2 °C 1017.2 hPa ENE 4.8 km/h 14.5 km/h 86% 0 mm
23:05 16.5 °C 14.2 °C 1016.8 hPa East 4.8 km/h 12.9 km/h 86% 0 mm
23:10 16.5 °C 14.2 °C 1016.8 hPa ENE 6.4 km/h 14.5 km/h 86% 0 mm
23:14 16.5 °C 13.9 °C 1016.8 hPa ENE 6.4 km/h 14.5 km/h 85% 0 mm
23:19 16.5 °C 13.9 °C 1016.8 hPa ENE 4.8 km/h 11.3 km/h 85% 0 mm
23:24 16.5 °C 13.9 °C 1016.8 hPa ENE 4.8 km/h 9.7 km/h 85% 0 mm
23:30 16.5 °C 14.2 °C 1016.5 hPa East 3.2 km/h 12.9 km/h 86% 0 mm
23:34 16.4 °C 14.1 °C 1016.5 hPa East 9.7 km/h 11.3 km/h 86% 0 mm
23:40 16.4 °C 14.1 °C 1016.1 hPa East 4.8 km/h 12.9 km/h 86% 0 mm
23:45 16.4 °C 14.1 °C 1016.1 hPa ESE 1.6 km/h 11.3 km/h 86% 0 mm
23:49 16.4 °C 14.1 °C 1016.1 hPa East 4.8 km/h 12.9 km/h 86% 0 mm
23:55 16.3 °C 14 °C 1016.1 hPa ENE 4.8 km/h 12.9 km/h 86% 0 mm
Buffalo, New York, USA
Compliments of Weather Underground - 2.5 mb